createdAt,value
2017-06-27T00:00:38.151Z,1003.84
2017-06-27T00:01:38.243Z,1003.78
2017-06-27T00:02:38.242Z,1003.81
2017-06-27T00:03:38.361Z,1003.79
2017-06-27T00:04:38.152Z,1003.78
2017-06-27T00:05:38.246Z,1003.76
2017-06-27T00:06:38.165Z,1003.73
2017-06-27T00:07:38.246Z,1003.73
2017-06-27T00:08:38.169Z,1003.76
2017-06-27T00:09:38.243Z,1003.75
2017-06-27T00:10:38.211Z,1003.75
2017-06-27T00:11:38.162Z,1003.68
2017-06-27T00:12:38.161Z,1003.68
2017-06-27T00:13:38.251Z,1003.68
2017-06-27T00:14:38.159Z,1003.67
2017-06-27T00:15:38.170Z,1003.59
2017-06-27T00:16:38.160Z,1003.64
2017-06-27T00:17:38.160Z,1003.63
2017-06-27T00:18:38.244Z,1003.66
2017-06-27T00:19:38.252Z,1003.62
2017-06-27T00:20:38.263Z,1003.68
2017-06-27T00:21:38.254Z,1003.63
2017-06-27T00:22:38.225Z,1003.65
2017-06-27T00:23:38.247Z,1003.63
2017-06-27T00:24:38.261Z,1003.63
2017-06-27T00:25:38.257Z,1003.66
2017-06-27T00:26:38.165Z,1003.65
2017-06-27T00:27:38.257Z,1003.68
2017-06-27T00:28:38.173Z,1003.58
2017-06-27T00:29:38.216Z,1003.62
2017-06-27T00:30:38.259Z,1003.55
2017-06-27T00:31:38.266Z,1003.62
2017-06-27T00:32:38.202Z,1003.63
2017-06-27T00:33:38.179Z,1003.63
2017-06-27T00:34:38.263Z,1003.64
2017-06-27T00:35:38.199Z,1003.66
2017-06-27T00:36:38.179Z,1003.68
2017-06-27T00:37:38.264Z,1003.66
2017-06-27T00:38:38.206Z,1003.63
2017-06-27T00:39:38.265Z,1003.62
2017-06-27T00:40:38.271Z,1003.59
2017-06-27T00:41:38.267Z,1003.62
2017-06-27T00:42:38.315Z,1003.61
2017-06-27T00:43:38.176Z,1003.57
2017-06-27T00:44:38.172Z,1003.57
2017-06-27T00:45:38.225Z,1003.55
2017-06-27T00:46:38.183Z,1003.62
2017-06-27T00:47:38.180Z,1003.59
2017-06-27T00:48:38.192Z,1003.55
2017-06-27T00:49:38.272Z,1003.60
2017-06-27T00:50:38.189Z,1003.59
2017-06-27T00:51:38.278Z,1003.61
2017-06-27T00:52:38.320Z,1003.57
2017-06-27T00:53:38.272Z,1003.63
2017-06-27T00:54:38.184Z,1003.60
2017-06-27T00:55:38.231Z,1003.68
2017-06-27T00:56:38.274Z,1003.61
2017-06-27T00:57:38.183Z,1003.64
2017-06-27T00:58:38.277Z,1003.64
2017-06-27T00:59:38.314Z,1003.63
2017-06-27T01:00:38.194Z,1003.63
2017-06-27T01:01:38.190Z,1003.60
2017-06-27T01:02:38.233Z,1003.63
2017-06-27T01:03:38.222Z,1003.65
2017-06-27T01:04:38.274Z,1003.66
2017-06-27T01:05:38.277Z,1003.71
2017-06-27T01:06:38.192Z,1003.70
2017-06-27T01:07:38.192Z,1003.68
2017-06-27T01:08:38.195Z,1003.72
2017-06-27T01:09:38.197Z,1003.65
2017-06-27T01:10:38.281Z,1003.74
2017-06-27T01:11:38.240Z,1003.70
2017-06-27T01:12:38.260Z,1003.67
2017-06-27T01:13:38.283Z,1003.73
2017-06-27T01:14:38.198Z,1003.73
2017-06-27T01:15:38.199Z,1003.72
2017-06-27T01:16:38.201Z,1003.76
2017-06-27T01:17:38.201Z,1003.73
2017-06-27T01:18:38.197Z,1003.75
2017-06-27T01:19:38.202Z,1003.77
2017-06-27T01:20:38.204Z,1003.78
2017-06-27T01:21:38.289Z,1003.70
2017-06-27T01:22:38.291Z,1003.79
2017-06-27T01:23:38.200Z,1003.73
2017-06-27T01:24:38.205Z,1003.73
2017-06-27T01:25:38.289Z,1003.78
2017-06-27T01:26:38.270Z,1003.76
2017-06-27T01:27:38.270Z,1003.76
2017-06-27T01:28:38.290Z,1003.76
2017-06-27T01:29:38.205Z,1003.69
2017-06-27T01:30:38.257Z,1003.73
2017-06-27T01:31:38.274Z,1003.66
2017-06-27T01:32:38.210Z,1003.70
2017-06-27T01:33:38.292Z,1003.68
2017-06-27T01:34:38.256Z,1003.67
2017-06-27T01:35:38.201Z,1003.70
2017-06-27T01:36:38.212Z,1003.65
2017-06-27T01:37:38.257Z,1003.65
2017-06-27T01:38:38.205Z,1003.61
2017-06-27T01:39:38.257Z,1003.61
2017-06-27T01:40:38.299Z,1003.64
2017-06-27T01:41:38.294Z,1003.63
2017-06-27T01:42:38.307Z,1003.69
2017-06-27T01:43:38.215Z,1003.68
2017-06-27T01:44:38.303Z,1003.64
2017-06-27T01:45:38.301Z,1003.64
2017-06-27T01:46:38.307Z,1003.69
2017-06-27T01:47:38.260Z,1003.66
2017-06-27T01:48:38.304Z,1003.67
2017-06-27T01:49:38.264Z,1003.69
2017-06-27T01:50:38.357Z,1003.66
2017-06-27T01:51:38.211Z,1003.68
2017-06-27T01:52:38.304Z,1003.73
2017-06-27T01:53:38.304Z,1003.67
2017-06-27T01:54:38.222Z,1003.63
2017-06-27T01:55:38.307Z,1003.65
2017-06-27T01:56:38.311Z,1003.65
2017-06-27T01:57:38.266Z,1003.64
2017-06-27T01:58:38.310Z,1003.58
2017-06-27T01:59:38.284Z,1003.60
2017-06-27T02:00:38.227Z,1003.62
2017-06-27T02:01:38.311Z,1003.59
2017-06-27T02:02:38.289Z,1003.62
2017-06-27T02:03:38.254Z,1003.60
2017-06-27T02:04:38.313Z,1003.55
2017-06-27T02:05:38.253Z,1003.61
2017-06-27T02:06:38.309Z,1003.55
2017-06-27T02:07:38.314Z,1003.56
2017-06-27T02:08:38.232Z,1003.59
2017-06-27T02:09:38.318Z,1003.59
2017-06-27T02:10:38.320Z,1003.57
2017-06-27T02:11:38.308Z,1003.57
2017-06-27T02:12:38.230Z,1003.52
2017-06-27T02:13:38.235Z,1003.55
2017-06-27T02:14:38.318Z,1003.55
2017-06-27T02:15:38.316Z,1003.56
2017-06-27T02:16:38.318Z,1003.57
2017-06-27T02:17:38.366Z,1003.54
2017-06-27T02:18:38.323Z,1003.51
2017-06-27T02:19:38.325Z,1003.50
2017-06-27T02:20:38.316Z,1003.44
2017-06-27T02:21:38.321Z,1003.49
2017-06-27T02:22:38.325Z,1003.48
2017-06-27T02:23:38.323Z,1003.47
2017-06-27T02:24:38.322Z,1003.52
2017-06-27T02:25:38.300Z,1003.49
2017-06-27T02:26:38.325Z,1003.48
2017-06-27T02:27:38.328Z,1003.48
2017-06-27T02:28:38.323Z,1003.48
2017-06-27T02:29:38.318Z,1003.48
2017-06-27T02:30:38.241Z,1003.49
2017-06-27T02:31:38.331Z,1003.52
2017-06-27T02:32:38.327Z,1003.52
2017-06-27T02:33:38.330Z,1003.51
2017-06-27T02:34:38.238Z,1003.51
2017-06-27T02:35:38.289Z,1003.48
2017-06-27T02:36:38.249Z,1003.47
2017-06-27T02:37:38.330Z,1003.43
2017-06-27T02:38:38.286Z,1003.39
2017-06-27T02:39:38.330Z,1003.40
2017-06-27T02:40:38.294Z,1003.36
2017-06-27T02:41:38.274Z,1003.39
2017-06-27T02:42:38.329Z,1003.40
2017-06-27T02:43:38.334Z,1003.36
2017-06-27T02:44:38.384Z,1003.36
2017-06-27T02:45:38.337Z,1003.40
2017-06-27T02:46:38.336Z,1003.39
2017-06-27T02:47:38.296Z,1003.36
2017-06-27T02:48:38.250Z,1003.37
2017-06-27T02:49:38.314Z,1003.38
2017-06-27T02:50:38.248Z,1003.44
2017-06-27T02:51:38.251Z,1003.41
2017-06-27T02:52:38.339Z,1003.39
2017-06-27T02:53:38.257Z,1003.44
2017-06-27T02:54:38.300Z,1003.38
2017-06-27T02:55:38.339Z,1003.35
2017-06-27T02:56:38.348Z,1003.38
2017-06-27T02:57:38.346Z,1003.42
2017-06-27T02:58:38.341Z,1003.41
2017-06-27T02:59:38.252Z,1003.47
2017-06-27T03:00:38.265Z,1003.43
2017-06-27T03:01:38.346Z,1003.43
2017-06-27T03:02:38.312Z,1003.42
2017-06-27T03:03:38.319Z,1003.43
2017-06-27T03:04:38.346Z,1003.42
2017-06-27T03:05:38.272Z,1003.40
2017-06-27T03:06:38.304Z,1003.42
2017-06-27T03:07:38.257Z,1003.36
2017-06-27T03:08:38.256Z,1003.41
2017-06-27T03:09:38.311Z,1003.41
2017-06-27T03:10:38.351Z,1003.43
2017-06-27T03:11:38.350Z,1003.39
2017-06-27T03:12:38.353Z,1003.38
2017-06-27T03:13:38.259Z,1003.39
2017-06-27T03:14:38.351Z,1003.42
2017-06-27T03:15:38.466Z,1003.38
2017-06-27T03:16:38.313Z,1003.42
2017-06-27T03:17:38.356Z,1003.39
2017-06-27T03:18:38.268Z,1003.39
2017-06-27T03:19:38.354Z,1003.38
2017-06-27T03:20:38.327Z,1003.40
2017-06-27T03:21:38.271Z,1003.33
2017-06-27T03:22:38.349Z,1003.42
2017-06-27T03:23:38.346Z,1003.38
2017-06-27T03:24:38.271Z,1003.44
2017-06-27T03:25:38.269Z,1003.44
2017-06-27T03:26:38.360Z,1003.44
2017-06-27T03:27:38.265Z,1003.42
2017-06-27T03:28:38.276Z,1003.45
2017-06-27T03:29:38.270Z,1003.44
2017-06-27T03:30:38.272Z,1003.41
2017-06-27T03:31:38.361Z,1003.46
2017-06-27T03:32:38.278Z,1003.40
2017-06-27T03:33:38.273Z,1003.46
2017-06-27T03:34:38.325Z,1003.46
2017-06-27T03:35:38.268Z,1003.45
2017-06-27T03:36:38.356Z,1003.43
2017-06-27T03:37:38.275Z,1003.39
2017-06-27T03:38:38.353Z,1003.39
2017-06-27T03:39:38.339Z,1003.39
2017-06-27T03:40:38.364Z,1003.33
2017-06-27T03:41:38.369Z,1003.37
2017-06-27T03:42:38.359Z,1003.38
2017-06-27T03:43:38.369Z,1003.39
2017-06-27T03:44:38.272Z,1003.41
2017-06-27T03:45:38.370Z,1003.43
2017-06-27T03:46:38.308Z,1003.42
2017-06-27T03:47:38.422Z,1003.39
2017-06-27T03:48:38.370Z,1003.41
2017-06-27T03:49:38.338Z,1003.36
2017-06-27T03:50:38.281Z,1003.39
2017-06-27T03:51:38.360Z,1003.40
2017-06-27T03:52:38.372Z,1003.44
2017-06-27T03:53:38.375Z,1003.42
2017-06-27T03:54:38.288Z,1003.45
2017-06-27T03:55:38.342Z,1003.46
2017-06-27T03:56:38.280Z,1003.43
2017-06-27T03:57:38.288Z,1003.39
2017-06-27T03:58:38.370Z,1003.41
2017-06-27T03:59:38.286Z,1003.37
2017-06-27T04:00:38.382Z,1003.40
2017-06-27T04:01:38.294Z,1003.40
2017-06-27T04:02:38.315Z,1003.40
2017-06-27T04:03:38.374Z,1003.41
2017-06-27T04:04:38.372Z,1003.41
2017-06-27T04:05:38.290Z,1003.45
2017-06-27T04:06:38.295Z,1003.45
2017-06-27T04:07:38.382Z,1003.46
2017-06-27T04:08:38.381Z,1003.45
2017-06-27T04:09:38.381Z,1003.45
2017-06-27T04:10:38.380Z,1003.47
2017-06-27T04:11:38.381Z,1003.48
2017-06-27T04:12:38.287Z,1003.43
2017-06-27T04:13:38.381Z,1003.44
2017-06-27T04:14:38.355Z,1003.38
2017-06-27T04:15:38.293Z,1003.40
2017-06-27T04:16:38.297Z,1003.40
2017-06-27T04:17:38.380Z,1003.38
2017-06-27T04:18:38.362Z,1003.38
2017-06-27T04:19:38.376Z,1003.38
2017-06-27T04:20:38.332Z,1003.39
2017-06-27T04:21:38.301Z,1003.35
2017-06-27T04:22:38.388Z,1003.33
2017-06-27T04:23:38.302Z,1003.27
2017-06-27T04:24:38.307Z,1003.30
2017-06-27T04:25:38.392Z,1003.33
2017-06-27T04:26:38.391Z,1003.29
2017-06-27T04:27:38.392Z,1003.34
2017-06-27T04:28:38.437Z,1003.34
2017-06-27T04:29:38.340Z,1003.35
2017-06-27T04:30:38.389Z,1003.37
2017-06-27T04:31:38.384Z,1003.39
2017-06-27T04:32:38.383Z,1003.34
2017-06-27T04:33:38.384Z,1003.33
2017-06-27T04:34:38.310Z,1003.33
2017-06-27T04:35:38.467Z,1003.33
2017-06-27T04:36:38.312Z,1003.28
2017-06-27T04:37:38.307Z,1003.26
2017-06-27T04:38:38.299Z,1003.28
2017-06-27T04:39:38.425Z,1003.28
2017-06-27T04:40:38.371Z,1003.27
2017-06-27T04:41:38.401Z,1003.25
2017-06-27T04:42:38.305Z,1003.29
2017-06-27T04:43:38.398Z,1003.25
2017-06-27T04:44:38.309Z,1003.13
2017-06-27T04:45:38.400Z,1003.20
2017-06-27T04:46:38.392Z,1003.20
2017-06-27T04:47:38.307Z,1003.18
2017-06-27T04:48:38.314Z,1003.18
2017-06-27T04:50:38.315Z,1003.17
2017-06-27T04:51:38.385Z,1003.15
2017-06-27T04:52:38.413Z,1003.13
2017-06-27T04:53:38.319Z,1003.10
2017-06-27T04:54:38.409Z,1003.08
2017-06-27T04:55:38.407Z,1003.05
2017-06-27T04:56:38.317Z,1003.02
2017-06-27T04:57:38.319Z,1003.08
2017-06-27T04:58:38.405Z,1003.07
2017-06-27T04:59:38.313Z,1003.10
2017-06-27T05:00:38.320Z,1003.12
2017-06-27T05:01:38.317Z,1003.19
2017-06-27T05:02:38.320Z,1003.11
2017-06-27T05:03:38.407Z,1003.11
2017-06-27T05:04:38.414Z,1003.16
2017-06-27T05:05:38.382Z,1003.11
2017-06-27T05:06:38.415Z,1003.18
2017-06-27T05:07:38.409Z,1003.13
2017-06-27T05:08:38.327Z,1003.12
2017-06-27T05:09:38.331Z,1003.06
2017-06-27T05:10:38.403Z,1003.06
2017-06-27T05:11:38.356Z,1003.03
2017-06-27T05:12:38.424Z,1003.06
2017-06-27T05:13:38.402Z,1003.00
2017-06-27T05:14:38.415Z,1003.04
2017-06-27T05:15:38.320Z,1003.07
2017-06-27T05:16:38.465Z,1003.06
2017-06-27T05:17:38.324Z,1003.02
2017-06-27T05:18:38.418Z,1003.06
2017-06-27T05:19:38.332Z,1003.06
2017-06-27T05:20:38.327Z,1003.07
2017-06-27T05:21:38.361Z,1003.05
2017-06-27T05:22:38.422Z,1003.06
2017-06-27T05:23:38.431Z,1003.07
2017-06-27T05:24:38.417Z,1003.04
2017-06-27T05:25:38.425Z,1003.03
2017-06-27T05:26:38.424Z,1003.03
2017-06-27T05:27:38.421Z,1003.01
2017-06-27T05:28:38.425Z,1002.98
2017-06-27T05:29:38.423Z,1003.05
2017-06-27T05:30:38.426Z,1003.06
2017-06-27T05:31:38.334Z,1003.09
2017-06-27T05:32:38.398Z,1003.12
2017-06-27T05:33:38.394Z,1003.09
2017-06-27T05:34:38.427Z,1003.10
2017-06-27T05:35:38.343Z,1003.05
2017-06-27T05:36:38.423Z,1003.14
2017-06-27T05:37:38.369Z,1003.06
2017-06-27T05:38:38.421Z,1003.12
2017-06-27T05:39:38.339Z,1003.06
2017-06-27T05:40:38.344Z,1003.05
2017-06-27T05:41:38.430Z,1003.05
2017-06-27T05:42:38.343Z,1003.09
2017-06-27T05:43:38.340Z,1003.11
2017-06-27T05:44:38.436Z,1003.09
2017-06-27T05:45:38.424Z,1002.99
2017-06-27T05:46:38.431Z,1003.03
2017-06-27T05:47:38.423Z,1003.09
2017-06-27T05:48:38.436Z,1003.03
2017-06-27T05:49:38.348Z,1003.08
2017-06-27T05:50:38.346Z,1003.10
2017-06-27T05:51:38.429Z,1003.03
2017-06-27T05:52:38.436Z,1002.99
2017-06-27T05:53:38.347Z,1003.00
2017-06-27T05:54:38.355Z,1003.08
2017-06-27T05:55:38.377Z,1003.03
2017-06-27T05:56:38.435Z,1003.05
2017-06-27T05:57:38.440Z,1003.07
2017-06-27T05:58:38.437Z,1003.02
2017-06-27T05:59:38.355Z,1003.04
2017-06-27T06:00:38.360Z,1003.02
2017-06-27T06:01:38.442Z,1002.96
2017-06-27T06:02:38.443Z,1002.98
2017-06-27T06:03:38.447Z,1003.00
2017-06-27T06:04:38.353Z,1003.00
2017-06-27T06:05:38.458Z,1002.97
2017-06-27T06:06:38.492Z,1002.98
2017-06-27T06:07:38.445Z,1002.98
2017-06-27T06:08:38.363Z,1002.98
2017-06-27T06:09:38.421Z,1002.96
2017-06-27T06:10:38.358Z,1002.98
2017-06-27T06:11:38.449Z,1002.95
2017-06-27T06:12:38.356Z,1002.95
2017-06-27T06:13:38.406Z,1002.95
2017-06-27T06:14:38.484Z,1003.00
2017-06-27T06:15:38.449Z,1002.95
2017-06-27T06:16:38.455Z,1002.92
2017-06-27T06:17:38.369Z,1002.96
2017-06-27T06:18:38.450Z,1002.95
2017-06-27T06:19:38.441Z,1002.91
2017-06-27T06:20:38.502Z,1002.92
2017-06-27T06:21:38.448Z,1002.90
2017-06-27T06:22:38.455Z,1002.89
2017-06-27T06:23:38.453Z,1002.92
2017-06-27T06:24:38.447Z,1002.92
2017-06-27T06:25:38.453Z,1002.86
2017-06-27T06:26:38.364Z,1002.85
2017-06-27T06:27:38.456Z,1002.87
2017-06-27T06:28:38.477Z,1002.86
2017-06-27T06:29:38.456Z,1002.91
2017-06-27T06:30:38.445Z,1002.82
2017-06-27T06:31:38.404Z,1002.83
2017-06-27T06:32:38.457Z,1002.83
2017-06-27T06:33:38.433Z,1002.82
2017-06-27T06:34:38.460Z,1002.92
2017-06-27T06:35:38.449Z,1002.88
2017-06-27T06:36:38.463Z,1002.90
2017-06-27T06:37:38.462Z,1002.92
2017-06-27T06:38:38.464Z,1002.91
2017-06-27T06:39:38.459Z,1002.88
2017-06-27T06:40:38.373Z,1002.90
2017-06-27T06:41:38.367Z,1002.84
2017-06-27T06:42:38.455Z,1002.85
2017-06-27T06:43:38.441Z,1002.91
2017-06-27T06:44:38.452Z,1002.84
2017-06-27T06:45:38.463Z,1002.86
2017-06-27T06:46:38.381Z,1002.90
2017-06-27T06:47:38.388Z,1002.85
2017-06-27T06:48:38.472Z,1002.84
2017-06-27T06:49:38.470Z,1002.80
2017-06-27T06:50:38.381Z,1002.84
2017-06-27T06:51:38.379Z,1002.84
2017-06-27T06:52:38.471Z,1002.83
2017-06-27T06:53:38.445Z,1002.82
2017-06-27T06:54:38.381Z,1002.75
2017-06-27T06:55:38.388Z,1002.75
2017-06-27T06:56:38.391Z,1002.74
2017-06-27T06:57:38.551Z,1002.72
2017-06-27T06:58:38.492Z,1002.73
2017-06-27T06:59:38.397Z,1002.73
2017-06-27T07:00:38.381Z,1002.71
2017-06-27T07:01:38.479Z,1002.74
2017-06-27T07:02:38.381Z,1002.73
2017-06-27T07:03:38.392Z,1002.70
2017-06-27T07:04:38.454Z,1002.68
2017-06-27T07:05:38.478Z,1002.69
2017-06-27T07:06:38.500Z,1002.66
2017-06-27T07:07:38.483Z,1002.63
2017-06-27T07:08:38.484Z,1002.66
2017-06-27T07:09:38.453Z,1002.56
2017-06-27T07:10:38.480Z,1002.60
2017-06-27T07:11:38.394Z,1002.62
2017-06-27T07:12:38.477Z,1002.57
2017-06-27T07:13:38.474Z,1002.62
2017-06-27T07:14:38.399Z,1002.62
2017-06-27T07:15:38.482Z,1002.61
2017-06-27T07:16:38.401Z,1002.59
2017-06-27T07:17:38.485Z,1002.58
2017-06-27T07:18:38.476Z,1002.57
2017-06-27T07:19:38.395Z,1002.51
2017-06-27T07:20:38.395Z,1002.55
2017-06-27T07:21:38.402Z,1002.56
2017-06-27T07:22:38.404Z,1002.56
2017-06-27T07:23:38.488Z,1002.51
2017-06-27T07:24:38.460Z,1002.50
2017-06-27T07:25:38.490Z,1002.56
2017-06-27T07:26:38.485Z,1002.53
2017-06-27T07:27:38.429Z,1002.59
2017-06-27T07:28:38.399Z,1002.56
2017-06-27T07:29:38.490Z,1002.57
2017-06-27T07:30:38.493Z,1002.57
2017-06-27T07:31:38.496Z,1002.56
2017-06-27T07:32:38.492Z,1002.57
2017-06-27T07:33:38.410Z,1002.57
2017-06-27T07:34:38.485Z,1002.54
2017-06-27T07:35:38.407Z,1002.57
2017-06-27T07:36:38.469Z,1002.50
2017-06-27T07:37:38.517Z,1002.59
2017-06-27T07:38:38.485Z,1002.54
2017-06-27T07:39:38.403Z,1002.56
2017-06-27T07:40:38.491Z,1002.54
2017-06-27T07:41:38.482Z,1002.53
2017-06-27T07:42:38.441Z,1002.52
2017-06-27T07:43:38.501Z,1002.50
2017-06-27T07:44:38.410Z,1002.54
2017-06-27T07:45:38.493Z,1002.54
2017-06-27T07:46:38.416Z,1002.49
2017-06-27T07:47:38.417Z,1002.52
2017-06-27T07:48:38.487Z,1002.53
2017-06-27T07:49:38.503Z,1002.48
2017-06-27T07:50:38.502Z,1002.44
2017-06-27T07:51:38.417Z,1002.46
2017-06-27T07:52:38.420Z,1002.44
2017-06-27T07:53:38.500Z,1002.46
2017-06-27T07:54:38.491Z,1002.46
2017-06-27T07:55:38.496Z,1002.45
2017-06-27T07:56:38.421Z,1002.42
2017-06-27T07:57:38.507Z,1002.40
2017-06-27T07:58:38.507Z,1002.44
2017-06-27T07:59:38.507Z,1002.41
2017-06-27T08:00:38.511Z,1002.39
2017-06-27T08:01:38.417Z,1002.38
2017-06-27T08:02:38.503Z,1002.39
2017-06-27T08:03:38.426Z,1002.34
2017-06-27T08:04:38.505Z,1002.32
2017-06-27T08:05:38.421Z,1002.31
2017-06-27T08:06:38.504Z,1002.38
2017-06-27T08:07:38.487Z,1002.39
2017-06-27T08:08:38.426Z,1002.33
2017-06-27T08:09:38.514Z,1002.33
2017-06-27T08:10:38.502Z,1002.35
2017-06-27T08:11:38.505Z,1002.35
2017-06-27T08:12:38.431Z,1002.29
2017-06-27T08:13:38.514Z,1002.29
2017-06-27T08:14:38.525Z,1002.30
2017-06-27T08:15:38.514Z,1002.29
2017-06-27T08:16:38.425Z,1002.24
2017-06-27T08:17:38.491Z,1002.23
2017-06-27T08:18:38.523Z,1002.27
2017-06-27T08:19:38.439Z,1002.27
2017-06-27T08:20:38.514Z,1002.25
2017-06-27T08:21:38.520Z,1002.23
2017-06-27T08:22:38.492Z,1002.24
2017-06-27T08:23:38.522Z,1002.31
2017-06-27T08:24:38.511Z,1002.26
2017-06-27T08:25:38.521Z,1002.27
2017-06-27T08:26:38.522Z,1002.24
2017-06-27T08:27:38.515Z,1002.25
2017-06-27T08:28:38.526Z,1002.26
2017-06-27T08:29:38.509Z,1002.26
2017-06-27T08:30:38.529Z,1002.18
2017-06-27T08:31:38.519Z,1002.17
2017-06-27T08:32:38.526Z,1002.13
2017-06-27T08:33:38.525Z,1002.16
2017-06-27T08:34:38.528Z,1002.12
2017-06-27T08:35:38.496Z,1002.17
2017-06-27T08:36:38.530Z,1002.11
2017-06-27T08:37:38.531Z,1002.10
2017-06-27T08:38:38.531Z,1002.13
2017-06-27T08:39:38.446Z,1002.09
2017-06-27T08:40:38.469Z,1002.14
2017-06-27T08:41:38.524Z,1002.10
2017-06-27T08:42:38.527Z,1002.13
2017-06-27T08:43:38.452Z,1002.10
2017-06-27T08:44:38.440Z,1002.16
2017-06-27T08:45:38.534Z,1002.15
2017-06-27T08:46:38.526Z,1002.15
2017-06-27T08:47:38.505Z,1002.23
2017-06-27T08:48:38.453Z,1002.21
2017-06-27T08:49:38.452Z,1002.25
2017-06-27T08:50:38.523Z,1002.24
2017-06-27T08:51:38.532Z,1002.24
2017-06-27T08:52:38.511Z,1002.19
2017-06-27T08:53:38.457Z,1002.22
2017-06-27T08:54:38.541Z,1002.20
2017-06-27T08:55:38.453Z,1002.21
2017-06-27T08:56:38.543Z,1002.22
2017-06-27T08:57:38.542Z,1002.22
2017-06-27T08:58:38.450Z,1002.20
2017-06-27T08:59:38.533Z,1002.20
2017-06-27T09:00:38.540Z,1002.26
2017-06-27T09:01:38.525Z,1002.23
2017-06-27T09:02:38.535Z,1002.23
2017-06-27T09:03:38.542Z,1002.26
2017-06-27T09:04:38.457Z,1002.20
2017-06-27T09:05:38.548Z,1002.20
2017-06-27T09:06:38.517Z,1002.21
2017-06-27T09:07:38.542Z,1002.19
2017-06-27T09:08:38.590Z,1002.20
2017-06-27T09:09:38.455Z,1002.18
2017-06-27T09:10:38.547Z,1002.17
2017-06-27T09:11:38.547Z,1002.16
2017-06-27T09:12:38.553Z,1002.14
2017-06-27T09:13:38.458Z,1002.16
2017-06-27T09:14:38.521Z,1002.17
2017-06-27T09:15:38.541Z,1002.19
2017-06-27T09:16:38.581Z,1002.19
2017-06-27T09:17:38.544Z,1002.19
2017-06-27T09:18:38.490Z,1002.17
2017-06-27T09:19:38.549Z,1002.20
2017-06-27T09:20:38.553Z,1002.15
2017-06-27T09:21:38.469Z,1002.17
2017-06-27T09:22:38.492Z,1002.12
2017-06-27T09:23:38.465Z,1002.13
2017-06-27T09:24:38.552Z,1002.11
2017-06-27T09:25:38.586Z,1002.11
2017-06-27T09:26:38.556Z,1002.09
2017-06-27T09:27:38.558Z,1002.16
2017-06-27T09:28:38.563Z,1002.12
2017-06-27T09:29:38.562Z,1002.08
2017-06-27T09:30:38.475Z,1002.09
2017-06-27T09:31:38.560Z,1002.09
2017-06-27T09:32:38.475Z,1002.10
2017-06-27T09:33:38.558Z,1002.05
2017-06-27T09:34:38.554Z,1002.12
2017-06-27T09:35:38.561Z,1002.05
2017-06-27T09:36:38.566Z,1002.08
2017-06-27T09:37:38.558Z,1002.08
2017-06-27T09:38:38.548Z,1002.07
2017-06-27T09:39:38.553Z,1001.96
2017-06-27T09:40:38.471Z,1001.95
2017-06-27T09:41:38.482Z,1002.01
2017-06-27T09:42:38.537Z,1001.96
2017-06-27T09:43:38.572Z,1001.87
2017-06-27T09:44:38.477Z,1001.85
2017-06-27T09:45:38.564Z,1001.85
2017-06-27T09:46:38.475Z,1001.86
2017-06-27T09:47:38.481Z,1001.87
2017-06-27T09:48:38.539Z,1001.85
2017-06-27T09:49:38.477Z,1001.83
2017-06-27T09:50:38.544Z,1001.84
2017-06-27T09:51:38.543Z,1001.83
2017-06-27T09:52:38.573Z,1001.80
2017-06-27T09:53:38.569Z,1001.78
2017-06-27T09:54:38.559Z,1001.75
2017-06-27T09:55:38.572Z,1001.74
2017-06-27T09:56:38.485Z,1001.74
2017-06-27T09:57:38.573Z,1001.72
2017-06-27T09:58:38.569Z,1001.76
2017-06-27T09:59:38.480Z,1001.71
2017-06-27T10:00:38.575Z,1001.71
2017-06-27T10:01:38.578Z,1001.74
2017-06-27T10:02:38.490Z,1001.73
2017-06-27T10:03:38.577Z,1001.68
2017-06-27T10:04:38.586Z,1001.71
2017-06-27T10:05:38.581Z,1001.70
2017-06-27T10:06:38.572Z,1001.63
2017-06-27T10:07:38.583Z,1001.63
2017-06-27T10:08:38.549Z,1001.62
2017-06-27T10:09:38.552Z,1001.66
2017-06-27T10:10:38.585Z,1001.58
2017-06-27T10:11:38.552Z,1001.55
2017-06-27T10:12:38.554Z,1001.57
2017-06-27T10:13:38.566Z,1001.59
2017-06-27T10:14:38.573Z,1001.57
2017-06-27T10:15:38.584Z,1001.58
2017-06-27T10:16:38.577Z,1001.55
2017-06-27T10:17:38.586Z,1001.56
2017-06-27T10:18:38.586Z,1001.58
2017-06-27T10:19:38.579Z,1001.49
2017-06-27T10:20:38.578Z,1001.50
2017-06-27T10:21:38.587Z,1001.48
2017-06-27T10:22:38.579Z,1001.48
2017-06-27T10:23:38.496Z,1001.46
2017-06-27T10:24:38.570Z,1001.42
2017-06-27T10:25:38.497Z,1001.47
2017-06-27T10:26:38.591Z,1001.46
2017-06-27T10:27:38.587Z,1001.41
2017-06-27T10:28:38.503Z,1001.45
2017-06-27T10:29:38.575Z,1001.40
2017-06-27T10:30:38.594Z,1001.37
2017-06-27T10:31:38.595Z,1001.33
2017-06-27T10:32:38.504Z,1001.37
2017-06-27T10:33:38.583Z,1001.36
2017-06-27T10:34:38.510Z,1001.36
2017-06-27T10:35:38.566Z,1001.32
2017-06-27T10:36:38.507Z,1001.38
2017-06-27T10:37:38.599Z,1001.29
2017-06-27T10:38:38.598Z,1001.29
2017-06-27T10:39:38.592Z,1001.29
2017-06-27T10:40:38.595Z,1001.21
2017-06-27T10:41:38.584Z,1001.20
2017-06-27T10:42:38.511Z,1001.18
2017-06-27T10:43:38.509Z,1001.11
2017-06-27T10:44:38.597Z,1001.07
2017-06-27T10:45:38.514Z,1001.06
2017-06-27T10:46:38.503Z,1001.01
2017-06-27T10:47:38.589Z,1001.05
2017-06-27T10:48:38.601Z,1001.07
2017-06-27T10:49:38.595Z,1001.04
2017-06-27T10:50:38.509Z,1001.03
2017-06-27T10:51:38.518Z,1001.05
2017-06-27T10:52:38.601Z,1001.05
2017-06-27T10:53:38.603Z,1001.08
2017-06-27T10:54:38.604Z,1001.03
2017-06-27T10:55:38.600Z,1001.02
2017-06-27T10:56:38.514Z,1001.06
2017-06-27T10:57:38.519Z,1001.06
2017-06-27T10:58:38.598Z,1001.05
2017-06-27T10:59:38.516Z,1001.09
2017-06-27T11:00:38.523Z,1001.01
2017-06-27T11:01:38.608Z,1001.00
2017-06-27T11:02:38.530Z,1001.03
2017-06-27T11:03:38.518Z,1001.07
2017-06-27T11:04:38.610Z,1001.03
2017-06-27T11:05:38.611Z,1001.01
2017-06-27T11:06:38.549Z,1001.06
2017-06-27T11:07:38.601Z,1001.07
2017-06-27T11:08:38.516Z,1001.10
2017-06-27T11:09:38.608Z,1001.11
2017-06-27T11:10:38.613Z,1001.08
2017-06-27T11:11:38.615Z,1001.14
2017-06-27T11:12:38.617Z,1001.09
2017-06-27T11:13:38.520Z,1001.15
2017-06-27T11:14:38.528Z,1001.11
2017-06-27T11:15:38.524Z,1001.10
2017-06-27T11:16:38.609Z,1001.04
2017-06-27T11:17:38.613Z,1001.06
2017-06-27T11:18:38.618Z,1001.06
2017-06-27T11:19:38.608Z,1000.96
2017-06-27T11:20:38.562Z,1000.99
2017-06-27T11:21:38.622Z,1001.01
2017-06-27T11:22:38.537Z,1000.98
2017-06-27T11:23:38.591Z,1000.97
2017-06-27T11:24:38.612Z,1000.98
2017-06-27T11:25:38.529Z,1000.91
2017-06-27T11:26:38.614Z,1000.87
2017-06-27T11:27:38.533Z,1000.91
2017-06-27T11:28:38.628Z,1000.87
2017-06-27T11:29:38.534Z,1000.84
2017-06-27T11:30:38.561Z,1000.88
2017-06-27T11:31:38.615Z,1000.82
2017-06-27T11:32:38.630Z,1000.85
2017-06-27T11:33:38.622Z,1000.82
2017-06-27T11:34:38.623Z,1000.85
2017-06-27T11:35:38.541Z,1000.81
2017-06-27T11:36:38.541Z,1000.77
2017-06-27T11:37:38.621Z,1000.74
2017-06-27T11:38:38.616Z,1000.76
2017-06-27T11:39:38.613Z,1000.80
2017-06-27T11:40:38.619Z,1000.75
2017-06-27T11:41:38.626Z,1000.70
2017-06-27T11:42:38.572Z,1000.77
2017-06-27T11:43:38.553Z,1000.65
2017-06-27T11:44:38.549Z,1000.66
2017-06-27T11:45:38.551Z,1000.64
2017-06-27T11:46:38.633Z,1000.59
2017-06-27T11:47:38.603Z,1000.63
2017-06-27T11:48:38.549Z,1000.59
2017-06-27T11:49:38.644Z,1000.62
2017-06-27T11:50:38.638Z,1000.60
2017-06-27T11:51:38.622Z,1000.55
2017-06-27T11:52:38.637Z,1000.58
2017-06-27T11:53:38.638Z,1000.63
2017-06-27T11:54:38.628Z,1000.62
2017-06-27T11:55:38.557Z,1000.57
2017-06-27T11:56:38.663Z,1000.55
2017-06-27T11:57:38.640Z,1000.59
2017-06-27T11:58:38.644Z,1000.52
2017-06-27T11:59:38.556Z,1000.58
2017-06-27T12:00:38.643Z,1000.57
2017-06-27T12:01:38.635Z,1000.50
2017-06-27T12:02:38.648Z,1000.51
2017-06-27T12:03:38.629Z,1000.49
2017-06-27T12:04:38.635Z,1000.46
2017-06-27T12:05:38.646Z,1000.50
2017-06-27T12:06:38.647Z,1000.44